Wellsville, Ohio
Current Conditions -  °F | °C
As of 8:47 AM on Thursday 29 Jan 2015 (Local Time) from KBVI Reporting Station
Overcast Overcast  
Wind Chill: 15°   Ceiling: 11000
Heat Index: 25°   Visibility: 10mi
Dew Point: 12°   Wind: 10mph
Humidity: 59%   Direction: 140°SE
Pressure: 29.98"   Gusts: NA
Location:  40.6°N, 80.65°W
Report Text: KBVI 291347Z 14009KT 10SM OVC110 M04/M11 A2998
Loading
Personal Weather Stations






























Interactive Weather Map New forecast layout! Learn more

10-Day Weather Forecast

Advertisements
Track Severe Weather on mobile